• Join FlightAware (Why Join?)
  • Login
  • US Flag 
03:40PM EDT


 

Airport Tracker/Info


-or-


 

Live Flight TrackerFlight Track Log ✈ N550VW ✈ 24-Sep-2013 ✈ KICT - 5B2

Flight Track Log - Related Links

Times and Time Zones

All times are in EDT time to prevent confusion due to time zone crossing. See the N550VW flight status page for this flight to view local times or setup timezone preferences in your user account.

Time Position Orientation Groundspeed Altitude Reporting Facility
EDT Latitude Longitude Course Direction KTS MPH feet Rate Location/Type
09:12AM 37.6667 -97.4158 24° Northeast 174 200 1,700  Level Kansas City Center
09:13AM 37.7364 -97.3758 24° Northeast 201 231 4,900 2,100 Climbing Kansas City Center
09:14AM 37.7583 -97.3636 24° Northeast 196 226 5,600 1,860 Climbing Kansas City Center
09:14AM 37.7703 -97.3150 73° East 247 284 6,800 2,160 Climbing Kansas City Center
09:15AM 37.7769 -97.2836 75° East 243 280 7,800 2,100 Climbing Kansas City Center
09:15AM 37.7847 -97.2492 74° East 241 277 8,500 1,740 Climbing Kansas City Center
09:16AM 37.8003 -97.2042 66° East 240 276 9,600 1,740 Climbing Kansas City Center
09:17AM 37.8183 -97.1214 75° East 245 282 11,400 1,620 Climbing Kansas City Center
09:18AM 37.8372 -97.0358 74° East 251 289 13,000 1,560 Climbing Kansas City Center
09:19AM 37.8556 -96.9486 75° East 255 293 14,700 1,620 Climbing Kansas City Center
09:20AM 37.8753 -96.8636 74° East 254 292 16,300 1,560 Climbing Kansas City Center
09:21AM 37.9019 -96.7656 71° East 249 287 18,000 1,380 Climbing Kansas City Center
09:22AM 37.9314 -96.6864 65° Northeast 249 287 19,200 1,200 Climbing Kansas City Center
09:23AM 37.9611 -96.6050 65° Northeast 253 291 20,500 1,200 Climbing Kansas City Center
09:24AM 37.9914 -96.5236 65° Northeast 254 292 21,800 1,140 Climbing Kansas City Center
09:25AM 38.0217 -96.4408 65° Northeast 259 298 22,900 1,020 Climbing Kansas City Center
09:26AM 38.0525 -96.3553 65° Northeast 264 304 23,900 960 Climbing Kansas City Center
09:27AM 38.0836 -96.2697 65° Northeast 267 307 25,000 1,080 Climbing Kansas City Center
09:28AM 38.1214 -96.1667 65° Northeast 269 310 26,200 1,080 Climbing Kansas City Center
09:29AM 38.1514 -96.0833 65° Northeast 273 314 27,300 900 Climbing Kansas City Center
09:30AM 38.1856 -95.9864 66° East 270 311 28,100 900 Climbing Kansas City Center
09:31AM 38.2164 -95.9028 65° Northeast 272 313 29,200 900 Climbing Kansas City Center
09:32AM 38.2506 -95.8064 66° East 268 308 30,000 720 Climbing Kansas City Center
09:33AM 38.2800 -95.7228 66° East 271 312 30,800 480 Climbing Kansas City Center
09:34AM 38.3111 -95.6372 65° Northeast 277 319 31,000 60 Climbing Kansas City Center
09:35AM 38.3508 -95.5256 66° East 307 353 31,000  Level Kansas City Center
09:36AM 38.3861 -95.4236 66° East 324 373 31,000  Level Kansas City Center
09:37AM 38.4294 -95.3003 66° East 339 390 31,000  Level Kansas City Center
09:38AM 38.4675 -95.1942 65° Northeast 344 396 31,000  Level Kansas City Center
09:39AM 38.5119 -95.0658 66° East 353 406 31,000  Level Kansas City Center
09:40AM 38.5500 -94.9572 66° East 352 405 31,000  Level Kansas City Center
09:41AM 38.5944 -94.8297 66° East 352 405 31,000  Level Kansas City Center
09:42AM 38.6331 -94.7194 66° East 356 410 31,000  Level Kansas City Center
09:43AM 38.6764 -94.5917 66° East 353 406 31,000  Level Kansas City Center
09:44AM 38.7153 -94.4814 66° East 355 409 31,000  Level Kansas City Center
09:46AM 38.7594 -94.3500 67° East 359 413 31,000  Level Kansas City Center
09:47AM 38.7978 -94.2375 66° East 361 415 31,000 120 Level Kansas City Center
09:48AM 38.8428 -94.1047 66° East 359 413 31,300 240 Climbing Kansas City Center
09:49AM 38.8789 -93.9972 67° East 352 405 31,600 360 Climbing Kansas City Center
09:50AM 38.9217 -93.8717 66° East 345 397 32,100 420 Climbing Kansas City Center
09:51AM 38.9561 -93.7653 67° East 340 391 32,500 240 Climbing Kansas City Center
09:52AM 38.9917 -93.6583 67° East 342 394 32,700 180 Climbing Kansas City Center
09:53AM 39.0339 -93.5308 67° East 346 398 32,900 120 Climbing Kansas City Center
09:54AM 39.0706 -93.4217 67° East 347 399 33,000  Climbing Kansas City Center
09:55AM 39.1139 -93.2900 67° East 361 415 33,000  Level Kansas City Center
09:56AM 39.1519 -93.1717 67° East 362 417 33,000  Level Kansas City Center
09:57AM 39.1911 -93.0550 67° East 360 414 33,000  Level Kansas City Center
09:58AM 39.2375 -92.9122 67° East 361 415 33,000  Level Kansas City Center
09:59AM 39.2758 -92.7931 67° East 363 418 33,000  Level Kansas City Center
10:00AM 39.3136 -92.6742 68° East 362 417 33,000  Level Kansas City Center
10:01AM 39.3517 -92.5567 67° East 361 415 33,000  Level Kansas City Center
10:02AM 39.3894 -92.4400 67° East 358 412 33,000  Level Kansas City Center
10:03AM 39.4350 -92.2992 67° East 357 411 33,000  Level Kansas City Center
10:04AM 39.4719 -92.1806 68° East 359 413 33,000  Level Kansas City Center
10:05AM 39.5106 -92.0608 67° East 361 415 33,000  Level Kansas City Center
10:06AM 39.5483 -91.9419 68° East 361 415 33,000  Level Kansas City Center
10:07AM 39.5922 -91.8003 68° East 359 413 33,000  Level Kansas City Center
10:08AM 39.6286 -91.6822 68° East 358 412 33,000  Level Kansas City Center
10:09AM 39.6650 -91.5644 68° East 356 410 33,000  Level Kansas City Center
10:10AM 39.7011 -91.4447 69° East 358 412 33,000  Level Kansas City Center
10:11AM 39.7381 -91.3258 68° East 358 412 33,000  Level Kansas City Center
10:12AM 39.7842 -91.1797 68° East 364 419 33,000  Level Kansas City Center
10:13AM 39.8206 -91.0586 69° East 363 418 33,000  Level Kansas City Center
10:14AM 39.8561 -90.9378 69° East 364 419 33,000  Level Kansas City Center
10:16AM 39.8925 -90.8147 69° East 365 420 33,000  Level Kansas City Center
10:17AM 39.9292 -90.6931 69° East 363 418 33,000  Level Kansas City Center
10:18AM 39.9731 -90.5472 69° East 361 415 33,000  Level Kansas City Center
10:19AM 40.0094 -90.4247 69° East 363 418 33,000  Level Kansas City Center
10:20AM 40.0458 -90.3022 69° East 363 418 33,000  Level Kansas City Center
10:21AM 40.0825 -90.1783 69° East 365 420 33,000  Level Kansas City Center
10:22AM 40.1183 -90.0553 69° East 365 420 33,000  Level Kansas City Center
10:23AM 40.1544 -89.9314 69° East 366 421 33,000  Level Kansas City Center
10:24AM 40.1983 -89.7828 69° East 369 425 33,000  Level Chicago Center
10:25AM 40.2339 -89.6581 69° East 368 423 33,000  Level Chicago Center
10:26AM 40.2764 -89.5067 70° East 371 427 33,000 120 Level Chicago Center
10:27AM 40.3119 -89.3828 69° East 368 423 33,300 240 Climbing Chicago Center
10:28AM 40.3472 -89.2606 69° East 363 418 33,600 300 Climbing Chicago Center
10:29AM 40.3822 -89.1392 69° East 360 414 34,000 300 Climbing Chicago Center
10:30AM 40.4153 -89.0197 70° East 353 406 34,300 300 Climbing Chicago Center
10:31AM 40.4486 -88.8975 70° East 356 410 34,700 300 Climbing Chicago Center
10:32AM 40.4900 -88.7517 69° East 349 402 35,000 120 Climbing Chicago Center
10:33AM 40.5236 -88.6292 70° East 358 412 35,000  Level Chicago Center
10:34AM 40.5586 -88.5047 70° East 365 420 35,000  Level Chicago Center
10:35AM 40.5925 -88.3786 70° East 368 423 35,000  Level Chicago Center
10:36AM 40.6272 -88.2519 70° East 370 426 35,000  Level Chicago Center
10:37AM 40.6697 -88.0975 70° East 375 432 35,000  Level Chicago Center
10:38AM 40.7047 -87.9692 70° East 375 432 35,000  Level Chicago Center
10:39AM 40.7400 -87.8378 70° East 380 437 35,000  Level Chicago Center
10:40AM 40.7742 -87.7089 71° East 378 435 35,000  Level Chicago Center
10:41AM 40.8089 -87.5789 71° East 380 437 35,000  Level Chicago Center
10:43AM 40.8506 -87.4228 71° East 379 436 35,000  Level Chicago Center
10:44AM 40.8839 -87.2942 71° East 375 432 35,000  Level Chicago Center
10:45AM 40.9183 -87.1636 71° East 380 437 35,000  Level Chicago Center
10:46AM 40.9531 -87.0319 71° East 381 438 35,000  Level Chicago Center
10:47AM 40.9856 -86.9011 72° East 380 437 35,000  Level Chicago Center
10:48AM 41.0272 -86.7433 71° East 381 438 35,000  Level Chicago Center
10:49AM 41.0575 -86.6239 71° East 385 443 35,000  Level Chicago Center
10:50AM 41.0919 -86.4922 71° East 381 438 35,000  Level Chicago Center
10:51AM 41.1317 -86.3314 72° East 383 441 35,000  Level Chicago Center
10:52AM 41.1650 -86.2000 71° East 381 438 35,000  Level Chicago Center
10:53AM 41.1972 -86.0667 72° East 381 438 35,000  Level Chicago Center
10:54AM 41.2311 -85.9342 71° East 382 440 35,000  Level Chicago Center
10:55AM 41.2625 -85.8025 72° East 378 435 35,000  Level Chicago Center
10:56AM 41.3014 -85.6439 72° East 379 436 35,000  Level Chicago Center
10:57AM 41.3333 -85.5097 72° East 383 441 35,000  Level Chicago Center
10:58AM 41.3656 -85.3789 72° East 379 436 35,000  Level Chicago Center
10:59AM 41.3969 -85.2481 72° East 378 435 35,000  Level Chicago Center
11:00AM 41.4286 -85.1172 72° East 377 434 35,000  Level Chicago Center
11:01AM 41.4658 -84.9594 72° East 376 433 35,000  Level Chicago Center
11:02AM 41.4967 -84.8278 73° East 376 433 35,000  Level Chicago Center
11:03AM 41.5283 -84.6975 72° East 373 429 35,000  Level Chicago Center
11:04AM 41.5592 -84.5656 73° East 374 430 35,000  Level Chicago Center
11:05AM 41.5894 -84.4333 73° East 374 430 35,000  Level Chicago Center
11:06AM 41.6267 -84.2753 72° East 373 429 35,000  Level Cleveland Center
11:07AM 41.6578 -84.1331 74° East 372 428 35,000  Level Cleveland Center
11:08AM 41.6881 -84.0025 73° East 371 427 35,000  Level Cleveland Center
11:09AM 41.7169 -83.8722 73° East 367 422 35,000  Level Cleveland Center
11:11AM 41.7469 -83.7408 73° East 369 425 35,000  Level Cleveland Center
11:12AM 41.7808 -83.5839 74° East 369 425 35,000  Level Cleveland Center
11:13AM 41.8106 -83.4539 73° East 369 425 35,000  Level Cleveland Center
11:14AM 41.8403 -83.3236 73° East 369 425 35,000  Level Cleveland Center
11:15AM 41.8683 -83.1933 74° East 367 422 35,000  Level Cleveland Center
11:16AM 41.8969 -83.0611 74° East 372 428 35,000  Level Cleveland Center
11:17AM 41.9308 -82.9042 74° East 369 425 35,000  Level Cleveland Center
11:18AM 41.9597 -82.7728 73° East 368 423 35,000  Level Cleveland Center
11:19AM 41.9875 -82.6408 74° East 370 426 35,000  Level Cleveland Center
11:20AM 42.0147 -82.5097 74° East 369 425 35,000  Level Cleveland Center
11:21AM 42.0425 -82.3781 74° East 368 423 35,000  Level Cleveland Center
11:22AM 42.0706 -82.2453 74° East 370 426 35,000  Level Cleveland Center
11:23AM 42.1017 -82.0931 75° East 371 427 35,000  Level Cleveland Center
11:24AM 42.1308 -81.9583 74° East 371 427 35,000  Level Cleveland Center
11:25AM 42.1581 -81.8258 74° East 365 420 35,000  Level Cleveland Center
11:26AM 42.1853 -81.6917 75° East 366 421 35,000  Level Cleveland Center
11:27AM 42.2119 -81.5594 75° East 363 418 35,000  Level Cleveland Center
11:28AM 42.2389 -81.4261 75° East 365 420 35,000  Level Cleveland Center
11:29AM 42.2700 -81.2700 75° East 366 421 35,000  Level Cleveland Center
11:30AM 42.2867 -81.1322 81° East 367 422 35,000  Level Cleveland Center
11:31AM 42.3064 -80.9964 79° East 367 422 35,000  Level Cleveland Center
11:32AM 42.3247 -80.8600 80° East 365 420 35,000  Level Cleveland Center
11:33AM 42.3428 -80.7242 80° East 363 418 35,000  Level Cleveland Center
11:34AM 42.3617 -80.5872 79° East 366 421 35,000  Level Cleveland Center
11:35AM 42.3789 -80.4517 80° East 364 419 35,000  Level Cleveland Center
11:36AM 42.3983 -80.3158 79° East 365 420 35,000  Level Cleveland Center
11:37AM 42.4167 -80.1792 80° East 366 421 35,000  Level Cleveland Center
11:38AM 42.4336 -80.0411 81° East 362 417 35,000  Level Cleveland Center
11:39AM 42.4514 -79.9050 80° East 369 425 35,000  Level Cleveland Center
11:40AM 42.4719 -79.7453 80° East 361 415 35,000  Level Cleveland Center
11:41AM 42.4883 -79.6111 81° East 362 417 35,000  Level Cleveland Center
11:42AM 42.5042 -79.4775 81° East 361 415 35,000  Level Cleveland Center
11:43AM 42.5208 -79.3456 80° East 358 412 35,000  Level Cleveland Center
11:44AM 42.5378 -79.2119 80° East 359 413 35,000  Level Cleveland Center
11:46AM 42.5528 -79.0789 81° East 358 412 35,000  Level Cleveland Center
11:47AM 42.5678 -78.9444 81° East 360 414 35,000  Level Cleveland Center
11:48AM 42.5842 -78.8097 81° East 363 418 35,000  Level Cleveland Center
11:49AM 42.6019 -78.6475 81° East 364 419 35,000 -240 Level Cleveland Center
11:50AM 42.6175 -78.5097 81° East 370 426 34,600 -420 Descending Cleveland Center
11:51AM 42.6336 -78.3686 81° East 376 433 34,200 -480 Descending Cleveland Center
11:52AM 42.6489 -78.2289 81° East 375 432 33,700 -480 Descending Cleveland Center
11:53AM 42.6647 -78.0889 81° East 375 432 33,300 -480 Descending Cleveland Center
11:54AM 42.6806 -77.9494 81° East 372 428 32,800 -480 Descending Cleveland Center
11:55AM 42.6961 -77.8106 81° East 370 426 32,400 -540 Descending Cleveland Center
11:56AM 42.7106 -77.6464 83° East 372 428 31,800 -540 Descending Cleveland Center
11:57AM 42.7258 -77.5256 80° East 368 423 31,400 -420 Descending Cleveland Center
11:58AM 42.7400 -77.3861 82° East 369 425 31,000 -480 Descending Cleveland Center
11:59AM 42.7569 -77.2203 82° East 368 423 30,500 -540 Descending Cleveland Center
12:00PM 42.7719 -77.0825 82° East 368 423 30,000 -480 Descending Cleveland Center
12:01PM 42.7847 -76.9444 83° East 368 423 29,600 -480 Descending Cleveland Center
12:02PM 42.7989 -76.8075 82° East 367 422 29,100 -300 Descending Cleveland Center
12:03PM 42.8136 -76.6583 82° East 364 419 29,000 -60 Descending Cleveland Center
12:04PM 42.8261 -76.5236 83° East 360 414 29,000 -60 Level Cleveland Center
12:05PM 42.8433 -76.3625 82° East 365 420 28,900 -300 Descending Boston Center
12:06PM 42.8564 -76.2272 82° East 365 420 28,400 -1,080 Descending Boston Center
12:07PM 42.8694 -76.0836 83° East 370 426 26,800 -1,680 Descending Boston Center
12:08PM 42.8822 -75.9369 83° East 381 438 25,200 -1,680 Descending Boston Center
12:09PM 42.8950 -75.7958 83° East 386 444 23,500 -1,680 Descending Boston Center
12:10PM 42.9072 -75.6606 83° East 375 432 21,900 -1,620 Descending Boston Center
12:11PM 42.9192 -75.5306 83° East 360 414 20,300 -1,560 Descending Boston Center
12:12PM 42.9308 -75.4008 83° East 349 402 18,800 -1,320 Descending Boston Center
12:13PM 42.9403 -75.2764 84° East 343 395 17,800 -1,080 Descending Boston Center
12:14PM 42.9497 -75.1519 84° East 337 388 16,700 60 Descending Boston Center
12:15PM 42.9608 -75.0247 83° East 332 382 18,000 -1,200 Climbing Boston Center
12:16PM 42.9725 -74.8778 84° East 318 366 14,100 -2,400 Descending Boston Center
12:17PM 42.9786 -74.7814 85° East 321 369 13,200 -1,200 Descending Boston Center
12:17PM 42.9833 -74.7503 78° East 317 365 12,900 -1,080 Descending Boston Center
12:18PM 42.9869 -74.6739 86° East 321 369 12,200 -1,140 Descending Boston Center
12:18PM 42.9919 -74.6314 81° East 314 361 11,800 -1,140 Descending Boston Center
12:19PM 42.9978 -74.5436 85° East 315 362 11,100 -840 Descending Boston Center
12:19PM 43.0025 -74.5125 78° East 310 357 11,000 -900 Descending Boston Center
12:20PM 43.0058 -74.4447 86° East 305 351 10,200 -1,800 Descending Boston Center
12:20PM 43.0108 -74.3994 81° East 300 345 9,200 -2,940 Descending Boston Center
12:21PM 43.0142 -74.3283 86° East 290 334 7,300 -2,640 Descending Boston Center
12:21PM 43.0167 -74.2972 84° East 270 311 6,600 -1,200 Descending Boston Center
12:22PM 43.0200 -74.2319 86° East 285 328 6,100 6,840 Descending Boston Center
12:23PM 43.0278 -74.1244 84° East 285 328 18,000 6,060 Climbing Boston Center
12:24PM 43.0331 -74.0392 85° East 285 328 18,000  Level Boston Center
12:25PM 43.0411 -73.9117 85° East 285 328 18,000  Level Boston Center
12:26PM 43.0439 -73.8492 86° East 285 328 18,000  Level Boston Center
12:27PM 43.0439 -73.8492 115° Southeast 285 328 18,000  Level Boston Center
12:29PM 43.0439 -73.8492 115° Southeast 285 328 18,000  Level Boston Center
12:31PM 43.0439 -73.8492 115° Southeast 285 328 18,000  Level Boston Center
12:33PM 43.0500 -73.8500 75° East  Level FlightAware Approximate
12:40PM 43.0507 -73.8616 75° East  Level Estimated